METAR Data
IDs: Format: Raw Decoded Include TAF

Data at: 0734 UTC 23 Feb 2019

PADK 230656Z AUTO 16026G35KT 2SM RA BR BKN018 OVC023 04/03 A2901 RMK AO2 PK WND 16038/0630 SLP824 P0014 T00440028
PADK 230635Z AUTO 16029G38KT 2SM RA BR BKN016 OVC023 04/03 A2901 RMK AO2 PK WND 16038/0630 P0009
PADK 230620Z AUTO 16028G35KT 1 3/4SM RA BR BKN016 OVC023 04/03 A2902 RMK AO2 PK WND 16036/0606 P0004
PADK 230607Z AUTO 16027G36KT 2SM RA BR BKN018 OVC025 04/03 A2902 RMK AO2 PK WND 16036/0606 P0002
PADK 230556Z AUTO 16026G37KT 3SM -RA BR BKN018 OVC025 04/03 A2903 RMK AO2 PK WND 16040/0507 SLP829 P0012 60084 T00440028 10050 20044 56015
PADK 230540Z AUTO 15027G35KT 3SM -RA BR BKN016 OVC023 04/03 A2903 RMK AO2 PK WND 16040/0507 P0009
PADK 230456Z AUTO 16031G36KT 1 3/4SM -RA BR OVC018 04/03 A2904 RMK AO2 PK WND 16037/0435 SLP833 P0013 T00440028
PADK 230454Z AUTO 16029G34KT 1 3/4SM -RA BR OVC016 04/03 A2904 RMK AO2 PK WND 16037/0435 P0012
PADK 230356Z AUTO 16028G36KT 1 1/2SM RA BR BKN014 OVC022 04/03 A2907 RMK AO2 PK WND 16038/0326 SLP844 P0013 T00440028
PADK 230349Z AUTO 16026G33KT 1 1/4SM RA BR BKN014 OVC024 04/03 A2907 RMK AO2 PK WND 16038/0326 P0011
PADK 230346Z AUTO 16021G32KT 1SM RA BR SCT014 BKN019 OVC024 04/03 A2909 RMK AO2 PK WND 16038/0326 P0010
PADK 230313Z AUTO 16029G35KT 1 1/4SM RA BR BKN012 BKN021 OVC027 04/03 A2909 RMK AO2 PK WND 16036/0257 P0004
PADK 230256Z AUTO 15025G35KT 1SM -RA BR BKN014 OVC036 04/03 A2910 RMK AO2 PK WND 16035/0253 SLP855 P0017 60046 T00440028 56033
PADK 230238Z AUTO 15024G32KT 1 1/2SM RA BR OVC014 04/03 A2911 RMK AO2 PK WND 16035/0201 P0014
PADK 230230Z AUTO 16023G32KT 2SM RA BR OVC014 04/03 A2912 RMK AO2 PK WND 16035/0201 P0012
PADK 230156Z AUTO 15030G36KT 1 1/4SM RA BR OVC014 04/03 A2911 RMK AO2 PK WND 15036/0148 SLP858 P0014 T00440028
PADK 230129Z AUTO 16025G33KT 1 3/4SM -RA BR OVC012 04/03 A2914 RMK AO2 PK WND 15036/0105 P0006
PADK 230056Z AUTO 16024G34KT 2 1/2SM RA BR OVC012 04/03 A2916 RMK AO2 PK WND 16035/0024 SLP876 P0015 T00440028
PADK 230046Z AUTO 16025G33KT 3SM -RA BR OVC012 04/03 A2917 RMK AO2 PK WND 16035/0024 P0013
PADK 230022Z AUTO 16024G33KT 2SM RA BR OVC012 04/03 A2918 RMK AO2 PK WND 16034/0011 P0007
PADK 222356Z AUTO 16022G36KT 1 3/4SM RA BR OVC014 04/03 A2920 RMK AO2 PK WND 17038/2329 SLP888 P0017 60086 T00440028 10044 20033 56032
PADK 222341Z AUTO 16028G34KT 1 3/4SM RA BR OVC016 04/03 A2920 RMK AO2 PK WND 17038/2329 P0012
PADK 222337Z AUTO 16026G38KT 2SM RA BR OVC014 04/03 A2920 RMK AO2 PK WND 17038/2329 P0011
PADK 222321Z AUTO 16026G36KT 1 1/2SM RA BR BKN014 OVC022 04/03 A2921 RMK AO2 PK WND 16036/2316 P0007
PADK 222256Z AUTO 16027G37KT 1 3/4SM RA BR OVC016 04/03 A2923 RMK AO2 PK WND 16038/2233 SLP897 P0018 T00440028
PADK 222156Z AUTO 16026G33KT 1 1/2SM RA BR BKN017 OVC021 04/02 A2926 RMK AO2 PK WND 15035/2112 SLP910 P0017 T00390022
PADK 222056Z AUTO 16027G34KT 1 3/4SM -RA BR OVC017 04/02 A2930 RMK AO2 PK WND 16034/2054 VIS 1 1/2V2 SLP920 P0011 60034 T00390017 56025
PADK 222023Z AUTO 16025G33KT 2SM -RA BR OVC017 04/02 A2931 RMK AO2 PK WND 16033/2021 P0005
PADK 221956Z AUTO 16026G33KT 1 3/4SM RA BR OVC015 03/02 A2932 RMK AO2 PK WND 16034/1922 SLP928 P0012 T00330017
PADK 221947Z AUTO 16026G33KT 1 3/4SM -RA BR OVC015 03/02 A2932 RMK AO2 PK WND 16034/1922 P0010
PADK 221913Z AUTO 16026G30KT 2SM RA BR OVC015 03/02 A2933 RMK AO2 PK WND 16033/1902 P0003
PADK 221856Z AUTO 16023G32KT 2 1/2SM -RA BR OVC013 03/02 A2934 RMK AO2 PK WND 16032/1852 SLP937 P0011 T00330017
PADK 221756Z AUTO 16023G30KT 4SM RA BR OVC013 03/02 A2937 RMK AO2 PK WND 16032/1704 SLP946 P0012 60043 T00330017 10044 20033 58016
PADK 221747Z AUTO 16024G30KT 4SM -RA BR OVC016 03/02 A2937 RMK AO2 PK WND 16032/1704 P0010
PADK 221656Z AUTO 16025G37KT 4SM -RA BR OVC014 03/02 A2940 RMK AO2 PK WND 16037/1654 SLP955 P0010 T00330017
PADK 221606Z AUTO 16024G30KT 4SM -RA BR BKN014 OVC021 03/02 A2942 RMK AO2 PK WND 16030/1601 P0001
PADK 221556Z AUTO 16027G34KT 2 1/2SM RA BR OVC014 03/02 A2942 RMK AO2 PK WND 16035/1528 SLP962 P0009 T00330017
PADK 221554Z AUTO 16028G34KT 2 1/2SM RA BR OVC014 03/02 A2942 RMK AO2 PK WND 16035/1528 P0008
PADK 221456Z AUTO 17020G30KT 5SM -RA BR OVC014 04/02 A2946 RMK AO2 PK WND 16035/1416 RAB05 SLP977 P0001 60012 T00390017 58026
PADK 221356Z AUTO 17024G34KT 8SM OVC014 04/02 A2949 RMK AO2 PK WND 15035/1339 RAE53 SLP987 P0003 T00390022
PADK 221320Z AUTO 17024G32KT 5SM -RA BR OVC014 04/02 A2951 RMK AO2 PK WND 16032/1317 P0003
PADK 221312Z AUTO 17027G32KT 4SM -RA BR OVC016 04/02 A2951 RMK AO2 PK WND 17032/1311 P0002
PADK 221256Z AUTO 17020G30KT 5SM -RA BR OVC014 04/02 A2952 RMK AO2 PK WND 16034/1203 SLP997 P0008 T00440022
PADK 221156Z AUTO 17018G26KT 5SM -RA BR OVC014 04/02 A2954 RMK AO2 PK WND 16030/1113 SLP003 P0008 60078 70219 T00440022 10050 20039 57018
PADK 221056Z AUTO 19017G28KT 5SM -RA BR OVC017 05/03 A2956 RMK AO2 PK WND 19035/1026 SLP008 P0014 T00500028
PADK 220956Z AUTO 18028G36KT 3SM RA BR OVC015 04/03 A2958 RMK AO2 PK WND 19036/0955 SLP015 P0018 T00440028 400440017
PADK 220915Z AUTO 19021G27KT 4SM -RA BR OVC015 04/03 A2959 RMK AO2 PK WND 19032/0900 P0007
PADK 220856Z AUTO 19024G30KT 3SM RA BR OVC013 04/03 A2959 RMK AO2 PK WND 18035/0830 SLP021 P0016 60038 T00440028 56009
PADK 220827Z AUTO 18023G34KT 2 1/2SM RA BR OVC011 04/03 A2960 RMK AO2 PK WND 19035/0800 P0006
PADK 220818Z AUTO 19021G30KT 3SM -RA BR OVC009 04/03 A2960 RMK AO2 PK WND 19035/0800 CIG 008V013 P0004
PADK 220809Z AUTO 19023G35KT 2 1/2SM -RA BR OVC009 04/03 A2960 RMK AO2 PK WND 19035/0800 CIG 008V013 P0003
PADK 220756Z AUTO 19023G31KT 3SM RA BR OVC011 04/03 A2961 RMK AO2 PK WND 20033/0706 SLP027 P0011 T00440028
PADK 220748Z AUTO 19023G30KT 2 1/2SM -RA BR OVC011 04/03 A2961 RMK AO2 PK WND 20033/0706 CIG 008V012 P0010
PADK 220656Z AUTO 19029G36KT 5SM -RA BR OVC013 04/03 A2962 RMK AO2 PK WND 19036/0655 SLP030 P0011 T00440028
PADK 220556Z AUTO 18024G29KT 5SM -RA BR OVC013 04/03 A2964 RMK AO2 PK WND 18037/0514 SLP036 P0009 60056 T00440028 10044 20033 56011
PADK 220456Z AUTO 19023G32KT 4SM -RA BR OVC013 04/03 A2964 RMK AO2 PK WND 19035/0401 SLP038 P0010 T00390028
PADK 220356Z AUTO 19026G35KT 4SM -RA BR OVC013 04/02 A2965 RMK AO2 PK WND 18038/0302 SLP040 P0010 T00390022
PADK 220313Z AUTO 19027G35KT 3SM -RA BR OVC013 04/03 A2966 RMK AO2 PK WND 18038/0302 P0003
PADK 220256Z AUTO 19027G40KT 2SM -RA BR OVC011 04/02 A2967 RMK AO2 PK WND 19041/0202 SLP047 P0011 60027 T00390022 56018
PADK 220228Z AUTO 19028G38KT 2 1/2SM -RA BR BKN011 04/02 A2967 RMK AO2 PK WND 19041/0202 P0005
PADK 220156Z AUTO 19029G37KT 4SM -RA BR OVC013 04/02 A2968 RMK AO2 PK WND 19040/0109 SLP051 P0007 T00390022
PADK 220056Z AUTO 19029G40KT 4SM -RA BR OVC013 03/02 A2970 RMK AO2 PK WND 19040/0056 SLP056 P0009 T00330022
PADK 220047Z AUTO 19023G35KT 3SM -RA BR OVC013 03/02 A2970 RMK AO2 PK WND 19036/0030 P0008
PADK 220022Z AUTO 19028G34KT 2 1/2SM -RA BR BKN013 BKN018 OVC029 03/02 A2971 RMK AO2 PK WND 19035/0006 P0004
PADK 212356Z AUTO 19023G34KT 4SM -RA BR BKN013 OVC030 03/02 A2972 RMK AO2 PK WND 18037/2307 SLP064 P0007 60067 T00330017 10033 20022 58015
PADK 212256Z AUTO 19027G36KT 3SM -RA BR BKN013 BKN017 OVC033 03/02 A2974 RMK AO2 PK WND 19037/2225 SLP072 P0008 T00330017
PADK 212156Z AUTO 18029G37KT 3SM -RA BR BKN013 BKN018 OVC023 03/02 A2976 RMK AO2 PK WND 18041/2124 SLP077 P0009 T00330017
PADK 212056Z AUTO 19026G38KT 3SM -RA BR OVC011 03/01 A2977 RMK AO2 PK WND 19047/2015 SLP080 P0015 60043 T00280011 56010
PADK 212007Z AUTO 19031G42KT 2 1/2SM -RA BR BKN013 OVC019 03/01 A2977 RMK AO2 PK WND 18042/1958 P0003
PADK 211956Z AUTO 19036G47KT 2SM -RA BR BKN015 OVC021 03/01 A2978 RMK AO2 PK WND 20047/1952 SLP084 P0016 T00280011